createdAt,value
2018-07-15T00:00:25.920Z,8.17
2018-07-15T00:05:10.384Z,7.57
2018-07-15T00:09:54.815Z,6.80
2018-07-15T00:14:39.962Z,6.83
2018-07-15T00:19:24.534Z,7.13
2018-07-15T00:24:08.905Z,7.17
2018-07-15T00:28:53.448Z,6.80
2018-07-15T00:33:37.913Z,5.93
2018-07-15T00:38:22.515Z,5.97
2018-07-15T00:43:07.332Z,6.53
2018-07-15T00:47:51.683Z,7.63
2018-07-15T00:52:36.212Z,7.57
2018-07-15T00:57:20.659Z,7.43
2018-07-15T01:02:05.185Z,8.07
2018-07-15T01:06:49.677Z,7.10
2018-07-15T01:11:34.267Z,6.50
2018-07-15T01:16:18.812Z,7.63
2018-07-15T01:21:03.205Z,6.40
2018-07-15T01:25:47.942Z,7.07
2018-07-15T01:30:32.482Z,7.70
2018-07-15T01:35:16.953Z,8.40
2018-07-15T01:40:01.327Z,8.47
2018-07-15T01:44:45.734Z,9.20
2018-07-15T01:49:30.218Z,7.20
2018-07-15T01:54:14.701Z,8.20
2018-07-15T01:58:59.184Z,8.30
2018-07-15T02:03:43.550Z,8.47
2018-07-15T02:08:27.948Z,9.30
2018-07-15T02:13:12.225Z,9.63
2018-07-15T02:17:56.666Z,9.87
2018-07-15T02:22:41.094Z,11.70
2018-07-15T02:27:26.510Z,10.27
2018-07-15T02:32:10.955Z,9.43
2018-07-15T02:36:55.421Z,9.20
2018-07-15T02:41:39.998Z,10.20
2018-07-15T02:46:24.364Z,7.70
2018-07-15T02:51:08.736Z,8.43
2018-07-15T02:55:53.074Z,9.97
2018-07-15T03:00:37.643Z,8.00
2018-07-15T03:05:22.182Z,9.47
2018-07-15T03:10:06.742Z,10.03
2018-07-15T03:14:51.315Z,10.83
2018-07-15T03:19:35.810Z,11.23
2018-07-15T03:24:20.542Z,9.67
2018-07-15T03:29:05.081Z,10.70
2018-07-15T03:33:49.608Z,10.50
2018-07-15T03:38:33.919Z,9.90
2018-07-15T03:43:18.274Z,8.97
2018-07-15T03:48:02.704Z,9.77
2018-07-15T03:52:47.222Z,10.07
2018-07-15T03:57:31.678Z,8.13
2018-07-15T04:02:16.091Z,10.70
2018-07-15T04:07:00.530Z,9.40
2018-07-15T04:11:45.056Z,8.63
2018-07-15T04:16:29.646Z,8.53
2018-07-15T04:21:14.054Z,10.13
2018-07-15T04:25:58.483Z,8.37
2018-07-15T04:30:43.084Z,8.10
2018-07-15T04:35:27.732Z,8.97
2018-07-15T04:40:12.128Z,8.70
2018-07-15T04:44:56.640Z,8.70
2018-07-15T04:49:41.190Z,9.53
2018-07-15T04:54:25.673Z,9.13
2018-07-15T04:59:10.072Z,8.93
2018-07-15T05:03:54.495Z,9.97
2018-07-15T05:08:38.978Z,8.50
2018-07-15T05:13:23.362Z,9.63
2018-07-15T05:18:07.855Z,8.40
2018-07-15T05:22:52.273Z,9.17
2018-07-15T05:27:36.737Z,11.13
2018-07-15T05:32:21.156Z,7.97
2018-07-15T05:37:05.559Z,8.07
2018-07-15T05:41:50.084Z,7.63
2018-07-15T05:46:34.552Z,8.63
2018-07-15T05:51:18.922Z,8.30
2018-07-15T05:56:03.420Z,8.67
2018-07-15T06:00:48.037Z,8.73
2018-07-15T06:05:32.565Z,8.47
2018-07-15T06:10:16.955Z,8.70
2018-07-15T06:15:01.474Z,7.63
2018-07-15T06:19:45.964Z,7.97
2018-07-15T06:24:30.463Z,8.37
2018-07-15T06:29:14.898Z,8.07
2018-07-15T06:33:59.394Z,8.37
2018-07-15T06:38:43.897Z,8.23
2018-07-15T06:43:28.339Z,6.90
2018-07-15T06:48:12.732Z,7.23
2018-07-15T06:52:57.234Z,8.87
2018-07-15T06:57:54.742Z,7.30
2018-07-15T07:02:41.514Z,7.13
2018-07-15T07:07:25.996Z,7.67
2018-07-15T07:12:10.580Z,6.80
2018-07-15T07:16:55.064Z,7.00
2018-07-15T07:21:39.414Z,7.57
2018-07-15T07:26:23.794Z,6.87
2018-07-15T07:31:08.158Z,7.63
2018-07-15T07:35:52.468Z,6.87
2018-07-15T07:40:37.010Z,6.83
2018-07-15T07:45:21.458Z,5.97
2018-07-15T07:50:06.060Z,5.97
2018-07-15T07:54:50.459Z,5.53
2018-07-15T07:59:34.894Z,5.90
2018-07-15T08:04:19.250Z,6.00
2018-07-15T08:09:04.858Z,7.30
2018-07-15T08:13:49.325Z,5.97
2018-07-15T08:18:33.905Z,7.90
2018-07-15T08:23:18.418Z,6.17
2018-07-15T08:28:02.847Z,5.13
2018-07-15T08:32:47.393Z,9.40
2018-07-15T08:37:31.822Z,5.37
2018-07-15T08:42:16.419Z,5.90
2018-07-15T08:47:00.869Z,5.80
2018-07-15T08:51:45.303Z,5.13
2018-07-15T08:56:29.762Z,5.63
2018-07-15T09:01:14.457Z,5.30
2018-07-15T09:05:58.956Z,7.23
2018-07-15T09:10:43.386Z,3.90
2018-07-15T09:15:27.895Z,6.83
2018-07-15T09:20:12.189Z,4.80
2018-07-15T09:24:56.575Z,5.20
2018-07-15T09:29:41.050Z,5.27
2018-07-15T09:34:25.474Z,4.30
2018-07-15T09:39:09.847Z,4.70
2018-07-15T09:43:54.646Z,4.35
2018-07-15T09:48:39.024Z,4.35
2018-07-15T09:53:23.772Z,4.67
2018-07-15T09:58:08.287Z,4.05
2018-07-15T10:02:52.798Z,3.92
2018-07-15T10:07:37.215Z,4.03
2018-07-15T10:12:21.846Z,5.53
2018-07-15T10:17:06.330Z,5.40
2018-07-15T10:21:50.853Z,7.47
2018-07-15T10:26:35.320Z,4.67
2018-07-15T10:31:19.653Z,4.70
2018-07-15T10:36:04.044Z,6.35
2018-07-15T10:40:48.513Z,5.37
2018-07-15T10:45:32.954Z,4.28
2018-07-15T10:50:17.350Z,5.40
2018-07-15T10:55:01.715Z,5.00
2018-07-15T10:59:46.116Z,4.72
2018-07-15T11:04:31.515Z,5.10
2018-07-15T11:09:16.025Z,5.00
2018-07-15T11:14:00.549Z,4.50
2018-07-15T11:18:44.905Z,4.97
2018-07-15T11:23:29.419Z,5.70
2018-07-15T11:28:13.849Z,5.05
2018-07-15T11:32:58.569Z,4.97
2018-07-15T11:37:43.262Z,5.20
2018-07-15T11:42:28.615Z,5.75
2018-07-15T11:47:13.652Z,5.17
2018-07-15T11:51:58.763Z,5.22
2018-07-15T11:56:46.676Z,4.50
2018-07-15T12:01:32.382Z,4.30
2018-07-15T12:06:16.859Z,4.28
2018-07-15T12:11:01.459Z,4.03
2018-07-15T12:15:46.050Z,3.90
2018-07-15T12:20:30.502Z,4.20
2018-07-15T12:25:15.015Z,4.70
2018-07-15T12:29:59.640Z,4.20
2018-07-15T12:34:44.328Z,3.80
2018-07-15T12:39:28.984Z,3.60
2018-07-15T12:44:13.440Z,5.00
2018-07-15T12:48:57.865Z,3.70
2018-07-15T12:53:42.440Z,3.62
2018-07-15T12:58:27.047Z,3.02
2018-07-15T13:03:11.448Z,3.92
2018-07-15T13:07:56.151Z,3.83
2018-07-15T13:12:41.370Z,3.75
2018-07-15T13:17:25.843Z,4.17
2018-07-15T13:22:10.316Z,4.00
2018-07-15T13:26:54.807Z,3.62
2018-07-15T13:31:39.440Z,3.47
2018-07-15T13:36:24.012Z,3.10
2018-07-15T13:41:09.177Z,3.80
2018-07-15T13:45:53.625Z,3.60
2018-07-15T13:50:38.115Z,4.60
2018-07-15T13:55:22.595Z,3.70
2018-07-15T14:00:08.064Z,4.35
2018-07-15T14:04:52.631Z,5.17
2018-07-15T14:09:37.308Z,4.62
2018-07-15T14:14:21.649Z,3.60
2018-07-15T14:19:06.103Z,3.77
2018-07-15T14:23:50.773Z,4.05
2018-07-15T14:28:35.228Z,3.75
2018-07-15T14:33:19.589Z,3.17
2018-07-15T14:38:04.092Z,4.20
2018-07-15T14:42:48.483Z,5.10
2018-07-15T14:47:32.951Z,4.65
2018-07-15T14:52:17.513Z,4.08
2018-07-15T14:57:01.980Z,4.03
2018-07-15T15:01:46.533Z,4.10
2018-07-15T15:06:30.940Z,4.12
2018-07-15T15:11:15.596Z,4.30
2018-07-15T15:16:00.052Z,4.37
2018-07-15T15:20:44.696Z,3.62
2018-07-15T15:25:30.479Z,4.00
2018-07-15T15:30:15.044Z,3.55
2018-07-15T15:34:59.822Z,4.33
2018-07-15T15:39:44.211Z,5.92
2018-07-15T15:44:28.749Z,3.77
2018-07-15T15:49:13.325Z,3.70
2018-07-15T15:53:57.941Z,3.30
2018-07-15T15:58:42.453Z,3.85
2018-07-15T16:03:26.890Z,4.28
2018-07-15T16:08:11.762Z,4.30
2018-07-15T16:12:56.223Z,5.47
2018-07-15T16:17:40.647Z,4.12
2018-07-15T16:22:25.116Z,4.00
2018-07-15T16:27:09.566Z,6.55
2018-07-15T16:31:54.174Z,4.15
2018-07-15T16:36:38.557Z,4.00
2018-07-15T16:41:22.988Z,3.33
2018-07-15T16:46:07.567Z,5.92
2018-07-15T16:50:52.022Z,3.58
2018-07-15T16:55:36.441Z,5.72
2018-07-15T17:00:20.787Z,3.92
2018-07-15T17:05:05.208Z,3.42
2018-07-15T17:09:49.750Z,3.40
2018-07-15T17:14:35.559Z,3.52
2018-07-15T17:19:20.941Z,3.83
2018-07-15T17:24:05.515Z,3.40
2018-07-15T17:28:50.115Z,3.30
2018-07-15T17:33:34.749Z,2.80
2018-07-15T17:38:19.212Z,2.98
2018-07-15T17:43:05.343Z,3.80
2018-07-15T17:47:50.120Z,3.20
2018-07-15T17:52:34.657Z,2.85
2018-07-15T17:57:19.095Z,2.33
2018-07-15T18:02:06.032Z,2.70
2018-07-15T18:06:51.371Z,2.87
2018-07-15T18:11:35.774Z,2.90
2018-07-15T18:16:20.269Z,2.73
2018-07-15T18:21:04.628Z,3.10
2018-07-15T18:25:49.105Z,2.67
2018-07-15T18:30:33.542Z,2.63
2018-07-15T18:35:18.081Z,2.50
2018-07-15T18:40:02.483Z,3.07
2018-07-15T18:44:47.166Z,3.50
2018-07-15T18:49:31.819Z,2.27
2018-07-15T18:54:16.254Z,3.87
2018-07-15T18:59:00.937Z,2.60
2018-07-15T19:03:45.448Z,2.33
2018-07-15T19:08:31.139Z,2.50
2018-07-15T19:13:15.599Z,2.97
2018-07-15T19:18:00.162Z,2.77
2018-07-15T19:22:44.574Z,5.67
2018-07-15T19:27:29.291Z,3.30
2018-07-15T19:32:13.926Z,2.33
2018-07-15T19:36:58.440Z,2.57
2018-07-15T19:41:42.886Z,2.20
2018-07-15T19:46:27.376Z,8.87
2018-07-15T19:51:11.924Z,2.13
2018-07-15T19:55:56.564Z,5.10
2018-07-15T20:00:42.485Z,2.60
2018-07-15T20:05:26.944Z,2.60
2018-07-15T20:10:11.593Z,2.63
2018-07-15T20:14:56.810Z,2.37
2018-07-15T20:19:42.863Z,3.27
2018-07-15T20:24:27.703Z,3.20
2018-07-15T20:29:12.744Z,4.07
2018-07-15T20:33:58.476Z,2.57
2018-07-15T20:38:43.176Z,2.93
2018-07-15T20:43:28.058Z,2.37
2018-07-15T20:48:12.409Z,2.20
2018-07-15T20:52:58.878Z,2.20
2018-07-15T20:57:43.250Z,2.43
2018-07-15T21:02:27.669Z,2.93
2018-07-15T21:07:12.038Z,2.07
2018-07-15T21:11:56.517Z,3.20
2018-07-15T21:16:40.939Z,3.30
2018-07-15T21:21:25.259Z,2.13
2018-07-15T21:26:09.605Z,3.67
2018-07-15T21:31:00.531Z,1.90
2018-07-15T21:35:45.050Z,3.20
2018-07-15T21:40:29.561Z,1.90
2018-07-15T21:45:13.989Z,2.10
2018-07-15T21:49:58.622Z,2.03
2018-07-15T21:54:43.094Z,1.90
2018-07-15T21:59:27.471Z,2.30
2018-07-15T22:04:12.227Z,3.33
2018-07-15T22:09:07.716Z,2.40
2018-07-15T22:13:52.202Z,2.40
2018-07-15T22:18:36.625Z,2.13
2018-07-15T22:23:21.091Z,3.20
2018-07-15T22:28:05.640Z,2.50
2018-07-15T22:32:50.159Z,2.00
2018-07-15T22:37:34.719Z,3.07
2018-07-15T22:42:19.195Z,2.87
2018-07-15T22:47:03.706Z,3.83
2018-07-15T22:51:58.580Z,2.83
2018-07-15T22:56:44.079Z,2.67
2018-07-15T23:01:28.500Z,2.50
2018-07-15T23:06:19.131Z,2.20
2018-07-15T23:11:03.509Z,2.33
2018-07-15T23:15:48.132Z,2.50
2018-07-15T23:20:34.351Z,2.57
2018-07-15T23:25:18.950Z,3.20
2018-07-15T23:30:03.264Z,3.50
2018-07-15T23:34:47.591Z,3.80
2018-07-15T23:39:31.926Z,4.10
2018-07-15T23:44:16.261Z,4.10
2018-07-15T23:49:00.655Z,4.43
2018-07-15T23:53:45.130Z,4.23
2018-07-15T23:58:29.461Z,3.80
